sensor_id;sensor_type;location;lat;lon;timestamp;temperature;humidity
11840;DHT22;5979;50.800;4.904;2023-10-09T00:00:05;15.10;99.90
11840;DHT22;5979;50.800;4.904;2023-10-09T00:02:51;15.10;99.90
11840;DHT22;5979;50.800;4.904;2023-10-09T00:05:17;15.10;99.90
11840;DHT22;5979;50.800;4.904;2023-10-09T00:07:49;15.10;99.90
11840;DHT22;5979;50.800;4.904;2023-10-09T00:10:15;15.10;99.90
11840;DHT22;5979;50.800;4.904;2023-10-09T00:12:42;15.10;99.90
11840;DHT22;5979;50.800;4.904;2023-10-09T00:15:09;15.20;99.90
11840;DHT22;5979;50.800;4.904;2023-10-09T00:17:36;15.10;99.90
11840;DHT22;5979;50.800;4.904;2023-10-09T00:20:03;15.10;99.90
11840;DHT22;5979;50.800;4.904;2023-10-09T00:22:43;15.10;99.90
11840;DHT22;5979;50.800;4.904;2023-10-09T00:25:12;15.10;99.90
11840;DHT22;5979;50.800;4.904;2023-10-09T00:27:39;15.10;99.90
11840;DHT22;5979;50.800;4.904;2023-10-09T00:30:12;15.10;99.90
11840;DHT22;5979;50.800;4.904;2023-10-09T00:32:41;15.10;99.90
11840;DHT22;5979;50.800;4.904;2023-10-09T00:35:08;15.10;99.90
11840;DHT22;5979;50.800;4.904;2023-10-09T00:38:08;15.10;99.90
11840;DHT22;5979;50.800;4.904;2023-10-09T00:40:41;15.20;99.90
11840;DHT22;5979;50.800;4.904;2023-10-09T00:43:18;15.20;99.90
11840;DHT22;5979;50.800;4.904;2023-10-09T00:45:46;15.20;99.90
11840;DHT22;5979;50.800;4.904;2023-10-09T00:48:13;15.20;99.90
11840;DHT22;5979;50.800;4.904;2023-10-09T00:50:49;15.20;99.90
11840;DHT22;5979;50.800;4.904;2023-10-09T00:53:20;15.20;99.90
11840;DHT22;5979;50.800;4.904;2023-10-09T00:55:57;15.20;99.90
11840;DHT22;5979;50.800;4.904;2023-10-09T00:58:23;15.20;99.90
11840;DHT22;5979;50.800;4.904;2023-10-09T01:00:53;15.10;99.90
11840;DHT22;5979;50.800;4.904;2023-10-09T01:03:19;15.10;99.90
11840;DHT22;5979;50.800;4.904;2023-10-09T01:08:32;15.10;99.90
11840;DHT22;5979;50.800;4.904;2023-10-09T01:11:00;15.10;99.90
11840;DHT22;5979;50.800;4.904;2023-10-09T01:13:41;15.00;99.90
11840;DHT22;5979;50.800;4.904;2023-10-09T01:16:09;15.00;99.90
11840;DHT22;5979;50.800;4.904;2023-10-09T01:18:41;15.00;99.90
11840;DHT22;5979;50.800;4.904;2023-10-09T01:21:07;15.10;99.90
11840;DHT22;5979;50.800;4.904;2023-10-09T01:23:33;15.10;99.90
11840;DHT22;5979;50.800;4.904;2023-10-09T01:25:59;15.10;99.90
11840;DHT22;5979;50.800;4.904;2023-10-09T01:28:24;15.20;99.90
11840;DHT22;5979;50.800;4.904;2023-10-09T01:30:51;15.20;99.90
11840;DHT22;5979;50.800;4.904;2023-10-09T01:33:17;15.20;99.90
11840;DHT22;5979;50.800;4.904;2023-10-09T01:35:50;15.20;99.90
11840;DHT22;5979;50.800;4.904;2023-10-09T01:38:17;15.30;99.90
11840;DHT22;5979;50.800;4.904;2023-10-09T01:40:44;15.30;99.90
11840;DHT22;5979;50.800;4.904;2023-10-09T01:43:10;15.30;99.90
11840;DHT22;5979;50.800;4.904;2023-10-09T01:45:36;15.40;99.90
11840;DHT22;5979;50.800;4.904;2023-10-09T01:48:17;15.40;99.90
11840;DHT22;5979;50.800;4.904;2023-10-09T01:50:49;15.50;99.90
11840;DHT22;5979;50.800;4.904;2023-10-09T01:53:14;15.50;99.90
11840;DHT22;5979;50.800;4.904;2023-10-09T01:55:43;15.60;99.90
11840;DHT22;5979;50.800;4.904;2023-10-09T01:58:11;15.60;99.90
11840;DHT22;5979;50.800;4.904;2023-10-09T02:00:43;15.70;99.90
11840;DHT22;5979;50.800;4.904;2023-10-09T02:03:15;15.70;99.90
11840;DHT22;5979;50.800;4.904;2023-10-09T02:05:42;15.80;99.90
11840;DHT22;5979;50.800;4.904;2023-10-09T02:08:07;15.80;99.90
11840;DHT22;5979;50.800;4.904;2023-10-09T02:10:38;15.80;99.90
11840;DHT22;5979;50.800;4.904;2023-10-09T02:13:13;15.90;99.90
11840;DHT22;5979;50.800;4.904;2023-10-09T02:15:47;15.90;99.90
11840;DHT22;5979;50.800;4.904;2023-10-09T02:18:17;16.00;99.90
11840;DHT22;5979;50.800;4.904;2023-10-09T02:20:47;16.00;99.90
11840;DHT22;5979;50.800;4.904;2023-10-09T02:23:28;16.00;99.90
11840;DHT22;5979;50.800;4.904;2023-10-09T02:26:13;16.00;99.90
11840;DHT22;5979;50.800;4.904;2023-10-09T02:28:57;16.10;99.90
11840;DHT22;5979;50.800;4.904;2023-10-09T02:31:30;16.10;99.90
11840;DHT22;5979;50.800;4.904;2023-10-09T02:34:06;16.10;99.90
11840;DHT22;5979;50.800;4.904;2023-10-09T02:36:33;16.10;99.90
11840;DHT22;5979;50.800;4.904;2023-10-09T02:39:22;16.10;99.90
11840;DHT22;5979;50.800;4.904;2023-10-09T02:44:20;16.20;99.90
11840;DHT22;5979;50.800;4.904;2023-10-09T02:46:56;16.20;99.90
11840;DHT22;5979;50.800;4.904;2023-10-09T02:49:24;16.10;99.90
11840;DHT22;5979;50.800;4.904;2023-10-09T02:51:50;16.10;99.90
11840;DHT22;5979;50.800;4.904;2023-10-09T02:54:19;16.20;99.90
11840;DHT22;5979;50.800;4.904;2023-10-09T02:56:49;16.20;99.90
11840;DHT22;5979;50.800;4.904;2023-10-09T02:59:22;16.10;99.90
11840;DHT22;5979;50.800;4.904;2023-10-09T03:01:48;16.10;99.90
11840;DHT22;5979;50.800;4.904;2023-10-09T03:04:15;16.10;99.90
11840;DHT22;5979;50.800;4.904;2023-10-09T03:06:41;16.10;99.90
11840;DHT22;5979;50.800;4.904;2023-10-09T03:09:20;16.10;99.90
11840;DHT22;5979;50.800;4.904;2023-10-09T03:11:54;16.00;99.90
11840;DHT22;5979;50.800;4.904;2023-10-09T03:14:23;16.00;99.90
11840;DHT22;5979;50.800;4.904;2023-10-09T03:16:54;16.00;99.90
11840;DHT22;5979;50.800;4.904;2023-10-09T03:19:22;16.00;99.90
11840;DHT22;5979;50.800;4.904;2023-10-09T03:21:47;16.00;99.90
11840;DHT22;5979;50.800;4.904;2023-10-09T03:24:13;16.00;99.90
11840;DHT22;5979;50.800;4.904;2023-10-09T03:26:39;16.00;99.90
11840;DHT22;5979;50.800;4.904;2023-10-09T03:29:04;16.00;99.90
11840;DHT22;5979;50.800;4.904;2023-10-09T03:31:35;16.00;99.90
11840;DHT22;5979;50.800;4.904;2023-10-09T03:34:02;16.00;99.90
11840;DHT22;5979;50.800;4.904;2023-10-09T03:36:28;16.00;99.90
11840;DHT22;5979;50.800;4.904;2023-10-09T03:38:56;15.90;99.90
11840;DHT22;5979;50.800;4.904;2023-10-09T03:41:24;16.00;99.90
11840;DHT22;5979;50.800;4.904;2023-10-09T03:43:53;16.00;99.90
11840;DHT22;5979;50.800;4.904;2023-10-09T03:46:22;16.00;99.90
11840;DHT22;5979;50.800;4.904;2023-10-09T03:48:57;16.00;99.90
11840;DHT22;5979;50.800;4.904;2023-10-09T03:51:27;16.00;99.90
11840;DHT22;5979;50.800;4.904;2023-10-09T03:53:52;16.00;99.90
11840;DHT22;5979;50.800;4.904;2023-10-09T03:56:19;16.00;99.90
11840;DHT22;5979;50.800;4.904;2023-10-09T03:58:50;16.00;99.90
11840;DHT22;5979;50.800;4.904;2023-10-09T04:01:19;16.00;99.90
11840;DHT22;5979;50.800;4.904;2023-10-09T04:03:52;16.00;99.90
11840;DHT22;5979;50.800;4.904;2023-10-09T04:06:24;16.00;99.90
11840;DHT22;5979;50.800;4.904;2023-10-09T04:09:04;15.90;99.90
11840;DHT22;5979;50.800;4.904;2023-10-09T04:11:49;15.80;99.90
11840;DHT22;5979;50.800;4.904;2023-10-09T04:14:33;15.90;99.90
11840;DHT22;5979;50.800;4.904;2023-10-09T04:17:00;15.90;99.90
11840;DHT22;5979;50.800;4.904;2023-10-09T04:19:51;15.90;99.90
11840;DHT22;5979;50.800;4.904;2023-10-09T04:22:39;15.80;99.90
11840;DHT22;5979;50.800;4.904;2023-10-09T04:25:08;15.80;99.90
11840;DHT22;5979;50.800;4.904;2023-10-09T04:27:40;15.80;99.90
11840;DHT22;5979;50.800;4.904;2023-10-09T04:30:07;15.80;99.90
11840;DHT22;5979;50.800;4.904;2023-10-09T04:32:33;15.80;99.90
11840;DHT22;5979;50.800;4.904;2023-10-09T04:35:00;15.80;99.90
11840;DHT22;5979;50.800;4.904;2023-10-09T04:37:45;15.70;99.90
11840;DHT22;5979;50.800;4.904;2023-10-09T04:40:18;15.80;99.90
11840;DHT22;5979;50.800;4.904;2023-10-09T04:43:03;15.70;99.90
11840;DHT22;5979;50.800;4.904;2023-10-09T04:45:38;15.70;99.90
11840;DHT22;5979;50.800;4.904;2023-10-09T04:48:10;15.70;99.90
11840;DHT22;5979;50.800;4.904;2023-10-09T04:50:36;15.80;99.90
11840;DHT22;5979;50.800;4.904;2023-10-09T04:53:12;15.80;99.90
11840;DHT22;5979;50.800;4.904;2023-10-09T04:55:40;15.80;99.90
11840;DHT22;5979;50.800;4.904;2023-10-09T04:58:10;15.80;99.90
11840;DHT22;5979;50.800;4.904;2023-10-09T05:00:49;15.80;99.90
11840;DHT22;5979;50.800;4.904;2023-10-09T05:03:29;15.80;99.90
11840;DHT22;5979;50.800;4.904;2023-10-09T05:06:09;15.80;99.90
11840;DHT22;5979;50.800;4.904;2023-10-09T05:08:50;15.80;99.90
11840;DHT22;5979;50.800;4.904;2023-10-09T05:11:22;15.80;99.90
11840;DHT22;5979;50.800;4.904;2023-10-09T05:14:19;15.80;99.90
11840;DHT22;5979;50.800;4.904;2023-10-09T05:16:55;15.90;99.90
11840;DHT22;5979;50.800;4.904;2023-10-09T05:19:23;15.80;99.90
11840;DHT22;5979;50.800;4.904;2023-10-09T05:22:10;15.90;99.90
11840;DHT22;5979;50.800;4.904;2023-10-09T05:24:58;15.90;99.90
11840;DHT22;5979;50.800;4.904;2023-10-09T05:27:27;15.90;99.90
11840;DHT22;5979;50.800;4.904;2023-10-09T05:30:11;15.90;99.90
11840;DHT22;5979;50.800;4.904;2023-10-09T05:32:54;15.90;99.90
11840;DHT22;5979;50.800;4.904;2023-10-09T05:35:45;15.90;99.90
11840;DHT22;5979;50.800;4.904;2023-10-09T05:38:31;15.90;99.90
11840;DHT22;5979;50.800;4.904;2023-10-09T05:41:01;15.90;99.90
11840;DHT22;5979;50.800;4.904;2023-10-09T05:43:47;15.90;99.90
11840;DHT22;5979;50.800;4.904;2023-10-09T05:46:31;15.90;99.90
11840;DHT22;5979;50.800;4.904;2023-10-09T05:49:01;15.90;99.90
11840;DHT22;5979;50.800;4.904;2023-10-09T05:51:35;15.90;99.90
11840;DHT22;5979;50.800;4.904;2023-10-09T05:54:07;15.90;99.90
11840;DHT22;5979;50.800;4.904;2023-10-09T05:56:51;15.90;99.90
11840;DHT22;5979;50.800;4.904;2023-10-09T05:59:54;15.90;99.90
11840;DHT22;5979;50.800;4.904;2023-10-09T06:02:58;15.90;99.90
11840;DHT22;5979;50.800;4.904;2023-10-09T06:05:42;15.80;99.90
11840;DHT22;5979;50.800;4.904;2023-10-09T06:08:19;15.80;99.90
11840;DHT22;5979;50.800;4.904;2023-10-09T06:11:04;15.80;99.90
11840;DHT22;5979;50.800;4.904;2023-10-09T06:13:58;15.80;99.90
11840;DHT22;5979;50.800;4.904;2023-10-09T06:16:42;15.80;99.90
11840;DHT22;5979;50.800;4.904;2023-10-09T06:19:10;15.90;99.90
11840;DHT22;5979;50.800;4.904;2023-10-09T06:21:45;15.90;99.90
11840;DHT22;5979;50.800;4.904;2023-10-09T06:24:22;15.90;99.90
11840;DHT22;5979;50.800;4.904;2023-10-09T06:26:49;15.90;99.90
11840;DHT22;5979;50.800;4.904;2023-10-09T06:29:27;15.90;99.90
11840;DHT22;5979;50.800;4.904;2023-10-09T06:32:18;15.90;99.90
11840;DHT22;5979;50.800;4.904;2023-10-09T06:34:47;15.90;99.90
11840;DHT22;5979;50.800;4.904;2023-10-09T06:37:41;15.90;99.90
11840;DHT22;5979;50.800;4.904;2023-10-09T06:40:26;16.00;99.90
11840;DHT22;5979;50.800;4.904;2023-10-09T06:43:12;16.00;99.90
11840;DHT22;5979;50.800;4.904;2023-10-09T06:45:56;16.00;99.90
11840;DHT22;5979;50.800;4.904;2023-10-09T06:48:44;16.00;99.90
11840;DHT22;5979;50.800;4.904;2023-10-09T06:51:21;16.10;99.90
11840;DHT22;5979;50.800;4.904;2023-10-09T06:53:50;16.10;99.90
11840;DHT22;5979;50.800;4.904;2023-10-09T06:56:28;16.10;99.90
11840;DHT22;5979;50.800;4.904;2023-10-09T06:58:58;16.20;99.90
11840;DHT22;5979;50.800;4.904;2023-10-09T07:01:27;16.20;99.90
11840;DHT22;5979;50.800;4.904;2023-10-09T07:03:53;16.20;99.90
11840;DHT22;5979;50.800;4.904;2023-10-09T07:06:20;16.30;99.90
11840;DHT22;5979;50.800;4.904;2023-10-09T07:08:56;16.40;99.90
11840;DHT22;5979;50.800;4.904;2023-10-09T07:11:34;16.40;99.90
11840;DHT22;5979;50.800;4.904;2023-10-09T07:14:10;16.40;99.90
11840;DHT22;5979;50.800;4.904;2023-10-09T07:16:58;16.40;99.90
11840;DHT22;5979;50.800;4.904;2023-10-09T07:19:29;16.50;99.90
11840;DHT22;5979;50.800;4.904;2023-10-09T07:22:16;16.60;99.90
11840;DHT22;5979;50.800;4.904;2023-10-09T07:24:53;16.60;99.90
11840;DHT22;5979;50.800;4.904;2023-10-09T07:27:28;16.70;99.90
11840;DHT22;5979;50.800;4.904;2023-10-09T07:30:11;16.80;99.90
11840;DHT22;5979;50.800;4.904;2023-10-09T07:35:40;17.00;99.90
11840;DHT22;5979;50.800;4.904;2023-10-09T07:38:10;17.00;99.90
11840;DHT22;5979;50.800;4.904;2023-10-09T07:40:40;17.10;99.90
11840;DHT22;5979;50.800;4.904;2023-10-09T07:43:23;17.20;99.90
11840;DHT22;5979;50.800;4.904;2023-10-09T07:45:55;17.30;99.90
11840;DHT22;5979;50.800;4.904;2023-10-09T07:48:26;17.50;99.90
11840;DHT22;5979;50.800;4.904;2023-10-09T07:50:52;17.60;99.90
11840;DHT22;5979;50.800;4.904;2023-10-09T07:53:23;17.70;99.90
11840;DHT22;5979;50.800;4.904;2023-10-09T07:55:52;17.90;99.90
11840;DHT22;5979;50.800;4.904;2023-10-09T07:58:31;18.00;99.90
11840;DHT22;5979;50.800;4.904;2023-10-09T08:00:59;18.20;99.90
11840;DHT22;5979;50.800;4.904;2023-10-09T08:03:46;18.30;99.90
11840;DHT22;5979;50.800;4.904;2023-10-09T08:06:16;18.50;99.90
11840;DHT22;5979;50.800;4.904;2023-10-09T08:09:00;18.70;99.90
11840;DHT22;5979;50.800;4.904;2023-10-09T08:11:31;18.90;99.90
11840;DHT22;5979;50.800;4.904;2023-10-09T08:14:19;19.00;99.90
11840;DHT22;5979;50.800;4.904;2023-10-09T08:16:51;19.20;99.90
11840;DHT22;5979;50.800;4.904;2023-10-09T08:19:31;19.40;99.90
11840;DHT22;5979;50.800;4.904;2023-10-09T08:22:00;19.60;99.90
11840;DHT22;5979;50.800;4.904;2023-10-09T08:24:44;19.60;99.90
11840;DHT22;5979;50.800;4.904;2023-10-09T08:27:18;19.70;99.90
11840;DHT22;5979;50.800;4.904;2023-10-09T08:30:12;19.70;99.90
11840;DHT22;5979;50.800;4.904;2023-10-09T08:32:58;19.70;99.90
11840;DHT22;5979;50.800;4.904;2023-10-09T08:35:35;19.70;99.90
11840;DHT22;5979;50.800;4.904;2023-10-09T08:38:12;19.70;99.90
11840;DHT22;5979;50.800;4.904;2023-10-09T08:40:40;19.70;99.90
11840;DHT22;5979;50.800;4.904;2023-10-09T08:43:20;19.70;99.90
11840;DHT22;5979;50.800;4.904;2023-10-09T08:45:54;19.60;99.90
11840;DHT22;5979;50.800;4.904;2023-10-09T08:48:23;19.60;99.90
11840;DHT22;5979;50.800;4.904;2023-10-09T08:50:52;19.60;99.90
11840;DHT22;5979;50.800;4.904;2023-10-09T08:53:22;19.70;99.90
11840;DHT22;5979;50.800;4.904;2023-10-09T08:55:49;19.60;99.90
11840;DHT22;5979;50.800;4.904;2023-10-09T08:58:15;19.70;99.90
11840;DHT22;5979;50.800;4.904;2023-10-09T09:00:56;19.70;99.90
11840;DHT22;5979;50.800;4.904;2023-10-09T09:03:24;19.80;99.90
11840;DHT22;5979;50.800;4.904;2023-10-09T09:06:01;19.80;99.90
11840;DHT22;5979;50.800;4.904;2023-10-09T09:08:28;19.80;99.90
11840;DHT22;5979;50.800;4.904;2023-10-09T09:11:01;19.80;99.90
11840;DHT22;5979;50.800;4.904;2023-10-09T09:13:48;19.80;99.90
11840;DHT22;5979;50.800;4.904;2023-10-09T09:16:21;19.90;99.90
11840;DHT22;5979;50.800;4.904;2023-10-09T09:21:27;19.90;99.90
11840;DHT22;5979;50.800;4.904;2023-10-09T09:23:55;20.00;99.90
11840;DHT22;5979;50.800;4.904;2023-10-09T09:26:43;20.10;99.90
11840;DHT22;5979;50.800;4.904;2023-10-09T09:29:15;20.30;99.90
11840;DHT22;5979;50.800;4.904;2023-10-09T09:31:55;20.50;99.90
11840;DHT22;5979;50.800;4.904;2023-10-09T09:34:49;20.60;99.90
11840;DHT22;5979;50.800;4.904;2023-10-09T09:37:20;20.70;99.90
11840;DHT22;5979;50.800;4.904;2023-10-09T09:39:47;20.80;99.90
11840;DHT22;5979;50.800;4.904;2023-10-09T09:42:15;20.80;99.90
11840;DHT22;5979;50.800;4.904;2023-10-09T09:44:51;20.90;99.90
11840;DHT22;5979;50.800;4.904;2023-10-09T09:47:17;20.90;99.90
11840;DHT22;5979;50.800;4.904;2023-10-09T09:49:51;20.90;99.90
11840;DHT22;5979;50.800;4.904;2023-10-09T09:52:18;20.90;99.90
11840;DHT22;5979;50.800;4.904;2023-10-09T09:54:44;20.90;99.90
11840;DHT22;5979;50.800;4.904;2023-10-09T09:57:16;21.10;99.90
11840;DHT22;5979;50.800;4.904;2023-10-09T09:59:51;21.30;99.90
11840;DHT22;5979;50.800;4.904;2023-10-09T10:02:30;21.40;99.90
11840;DHT22;5979;50.800;4.904;2023-10-09T10:05:02;21.60;99.90
11840;DHT22;5979;50.800;4.904;2023-10-09T10:07:31;21.70;99.90
11840;DHT22;5979;50.800;4.904;2023-10-09T10:09:56;21.70;99.90
11840;DHT22;5979;50.800;4.904;2023-10-09T10:15:13;21.90;99.90
11840;DHT22;5979;50.800;4.904;2023-10-09T10:20:25;21.90;99.90
11840;DHT22;5979;50.800;4.904;2023-10-09T10:23:14;21.80;99.90
11840;DHT22;5979;50.800;4.904;2023-10-09T10:25:42;21.80;99.90
11840;DHT22;5979;50.800;4.904;2023-10-09T10:28:19;21.60;99.90
11840;DHT22;5979;50.800;4.904;2023-10-09T10:31:01;21.50;99.90
11840;DHT22;5979;50.800;4.904;2023-10-09T10:36:24;21.50;99.90
11840;DHT22;5979;50.800;4.904;2023-10-09T10:39:06;21.50;99.90
11840;DHT22;5979;50.800;4.904;2023-10-09T10:41:58;21.40;99.90
11840;DHT22;5979;50.800;4.904;2023-10-09T10:44:32;21.40;99.90
11840;DHT22;5979;50.800;4.904;2023-10-09T10:47:11;21.50;99.90
11840;DHT22;5979;50.800;4.904;2023-10-09T10:49:54;21.60;99.90
11840;DHT22;5979;50.800;4.904;2023-10-09T10:52:27;21.70;99.90
11840;DHT22;5979;50.800;4.904;2023-10-09T10:55:14;21.70;99.90
11840;DHT22;5979;50.800;4.904;2023-10-09T10:57:44;21.70;99.90
11840;DHT22;5979;50.800;4.904;2023-10-09T11:00:19;21.80;99.90
11840;DHT22;5979;50.800;4.904;2023-10-09T11:03:20;21.80;99.90
11840;DHT22;5979;50.800;4.904;2023-10-09T11:05:55;21.80;99.90
11840;DHT22;5979;50.800;4.904;2023-10-09T11:08:25;21.80;99.90
11840;DHT22;5979;50.800;4.904;2023-10-09T11:11:11;21.80;99.90
11840;DHT22;5979;50.800;4.904;2023-10-09T11:13:41;21.80;99.90
11840;DHT22;5979;50.800;4.904;2023-10-09T11:16:23;21.80;99.90
11840;DHT22;5979;50.800;4.904;2023-10-09T11:19:09;21.80;99.90
11840;DHT22;5979;50.800;4.904;2023-10-09T11:21:54;21.70;99.90
11840;DHT22;5979;50.800;4.904;2023-10-09T11:24:33;21.70;99.90
11840;DHT22;5979;50.800;4.904;2023-10-09T11:27:01;21.70;99.90
11840;DHT22;5979;50.800;4.904;2023-10-09T11:29:34;21.70;99.90
11840;DHT22;5979;50.800;4.904;2023-10-09T11:32:09;21.70;99.90
11840;DHT22;5979;50.800;4.904;2023-10-09T11:34:48;21.70;99.90
11840;DHT22;5979;50.800;4.904;2023-10-09T11:37:22;21.80;99.90
11840;DHT22;5979;50.800;4.904;2023-10-09T11:40:37;21.80;99.90
11840;DHT22;5979;50.800;4.904;2023-10-09T11:43:19;21.80;99.90
11840;DHT22;5979;50.800;4.904;2023-10-09T11:46:11;21.90;99.90
11840;DHT22;5979;50.800;4.904;2023-10-09T11:48:37;21.90;99.90
11840;DHT22;5979;50.800;4.904;2023-10-09T11:51:22;21.90;99.90
11840;DHT22;5979;50.800;4.904;2023-10-09T11:53:48;22.00;99.90
11840;DHT22;5979;50.800;4.904;2023-10-09T11:56:23;22.10;99.90
11840;DHT22;5979;50.800;4.904;2023-10-09T11:58:52;22.10;99.90
11840;DHT22;5979;50.800;4.904;2023-10-09T12:01:19;22.10;99.90
11840;DHT22;5979;50.800;4.904;2023-10-09T12:03:51;22.10;99.90
11840;DHT22;5979;50.800;4.904;2023-10-09T12:06:21;22.20;99.90
11840;DHT22;5979;50.800;4.904;2023-10-09T12:08:49;22.10;99.90
11840;DHT22;5979;50.800;4.904;2023-10-09T12:11:16;22.10;99.90
11840;DHT22;5979;50.800;4.904;2023-10-09T12:14:04;22.10;99.90
11840;DHT22;5979;50.800;4.904;2023-10-09T12:16:30;22.10;99.90
11840;DHT22;5979;50.800;4.904;2023-10-09T12:18:58;22.10;99.90
11840;DHT22;5979;50.800;4.904;2023-10-09T12:21:25;22.10;99.90
11840;DHT22;5979;50.800;4.904;2023-10-09T12:23:53;22.10;99.90
11840;DHT22;5979;50.800;4.904;2023-10-09T12:26:23;22.10;99.90
11840;DHT22;5979;50.800;4.904;2023-10-09T12:28:49;22.10;99.90
11840;DHT22;5979;50.800;4.904;2023-10-09T12:31:16;22.10;99.90
11840;DHT22;5979;50.800;4.904;2023-10-09T12:33:45;22.20;99.90
11840;DHT22;5979;50.800;4.904;2023-10-09T12:36:12;22.20;99.90
11840;DHT22;5979;50.800;4.904;2023-10-09T12:38:46;22.20;99.90
11840;DHT22;5979;50.800;4.904;2023-10-09T12:41:16;22.30;99.90
11840;DHT22;5979;50.800;4.904;2023-10-09T12:43:46;22.30;99.90
11840;DHT22;5979;50.800;4.904;2023-10-09T12:46:12;22.40;99.90
11840;DHT22;5979;50.800;4.904;2023-10-09T12:48:43;22.40;99.90
11840;DHT22;5979;50.800;4.904;2023-10-09T12:51:12;22.40;99.90
11840;DHT22;5979;50.800;4.904;2023-10-09T12:53:45;22.50;99.90
11840;DHT22;5979;50.800;4.904;2023-10-09T12:56:11;22.50;99.90
11840;DHT22;5979;50.800;4.904;2023-10-09T12:58:38;22.60;99.90
11840;DHT22;5979;50.800;4.904;2023-10-09T13:01:04;22.50;99.90
11840;DHT22;5979;50.800;4.904;2023-10-09T13:03:40;22.60;99.90
11840;DHT22;5979;50.800;4.904;2023-10-09T13:06:05;22.60;99.90
11840;DHT22;5979;50.800;4.904;2023-10-09T13:08:37;22.50;99.90
11840;DHT22;5979;50.800;4.904;2023-10-09T13:11:07;22.50;99.90
11840;DHT22;5979;50.800;4.904;2023-10-09T13:13:40;22.50;99.90
11840;DHT22;5979;50.800;4.904;2023-10-09T13:16:16;22.40;99.90
11840;DHT22;5979;50.800;4.904;2023-10-09T13:18:52;22.50;99.90
11840;DHT22;5979;50.800;4.904;2023-10-09T13:21:28;22.50;99.90
11840;DHT22;5979;50.800;4.904;2023-10-09T13:23:57;22.60;99.90
11840;DHT22;5979;50.800;4.904;2023-10-09T13:26:23;22.60;99.90
11840;DHT22;5979;50.800;4.904;2023-10-09T13:28:55;22.60;99.90
11840;DHT22;5979;50.800;4.904;2023-10-09T13:31:22;22.60;99.90
11840;DHT22;5979;50.800;4.904;2023-10-09T13:33:52;22.60;99.90
11840;DHT22;5979;50.800;4.904;2023-10-09T13:36:27;22.60;99.90
11840;DHT22;5979;50.800;4.904;2023-10-09T13:39:01;22.60;99.90
11840;DHT22;5979;50.800;4.904;2023-10-09T13:44:16;22.60;99.90
11840;DHT22;5979;50.800;4.904;2023-10-09T13:46:42;22.50;99.90
11840;DHT22;5979;50.800;4.904;2023-10-09T13:49:11;22.50;99.90
11840;DHT22;5979;50.800;4.904;2023-10-09T13:51:43;22.60;99.90
11840;DHT22;5979;50.800;4.904;2023-10-09T13:54:14;22.50;99.90
11840;DHT22;5979;50.800;4.904;2023-10-09T13:56:50;22.60;99.90
11840;DHT22;5979;50.800;4.904;2023-10-09T13:59:21;22.60;99.90
11840;DHT22;5979;50.800;4.904;2023-10-09T14:01:52;22.60;99.90
11840;DHT22;5979;50.800;4.904;2023-10-09T14:04:20;22.60;99.90
11840;DHT22;5979;50.800;4.904;2023-10-09T14:06:46;22.60;99.90
11840;DHT22;5979;50.800;4.904;2023-10-09T14:09:13;22.60;99.90
11840;DHT22;5979;50.800;4.904;2023-10-09T14:11:57;22.60;99.90
11840;DHT22;5979;50.800;4.904;2023-10-09T14:14:36;22.50;99.90
11840;DHT22;5979;50.800;4.904;2023-10-09T14:17:12;22.50;99.90
11840;DHT22;5979;50.800;4.904;2023-10-09T14:19:42;22.50;99.90
11840;DHT22;5979;50.800;4.904;2023-10-09T14:22:16;22.50;99.90
11840;DHT22;5979;50.800;4.904;2023-10-09T14:24:43;22.50;99.90
11840;DHT22;5979;50.800;4.904;2023-10-09T14:27:13;22.40;99.90
11840;DHT22;5979;50.800;4.904;2023-10-09T14:29:52;22.30;99.90
11840;DHT22;5979;50.800;4.904;2023-10-09T14:32:22;22.20;99.90
11840;DHT22;5979;50.800;4.904;2023-10-09T14:34:55;22.30;99.90
11840;DHT22;5979;50.800;4.904;2023-10-09T14:37:28;22.20;99.90
11840;DHT22;5979;50.800;4.904;2023-10-09T14:39:56;22.20;99.90
11840;DHT22;5979;50.800;4.904;2023-10-09T14:42:22;22.20;99.90
11840;DHT22;5979;50.800;4.904;2023-10-09T14:44:49;22.20;99.90
11840;DHT22;5979;50.800;4.904;2023-10-09T14:47:16;22.20;99.90
11840;DHT22;5979;50.800;4.904;2023-10-09T14:49:47;22.20;99.90
11840;DHT22;5979;50.800;4.904;2023-10-09T14:52:14;22.20;99.90
11840;DHT22;5979;50.800;4.904;2023-10-09T14:54:44;22.30;99.90
11840;DHT22;5979;50.800;4.904;2023-10-09T14:57:10;22.30;99.90
11840;DHT22;5979;50.800;4.904;2023-10-09T14:59:37;22.30;99.90
11840;DHT22;5979;50.800;4.904;2023-10-09T15:02:03;22.30;99.90
11840;DHT22;5979;50.800;4.904;2023-10-09T15:04:31;22.30;99.90
11840;DHT22;5979;50.800;4.904;2023-10-09T15:06:57;22.20;99.90
11840;DHT22;5979;50.800;4.904;2023-10-09T15:09:23;22.10;99.90
11840;DHT22;5979;50.800;4.904;2023-10-09T15:11:49;22.00;99.90
11840;DHT22;5979;50.800;4.904;2023-10-09T15:14:16;22.00;99.90
11840;DHT22;5979;50.800;4.904;2023-10-09T15:16:44;21.90;99.90
11840;DHT22;5979;50.800;4.904;2023-10-09T15:19:11;21.80;99.90
11840;DHT22;5979;50.800;4.904;2023-10-09T15:21:37;21.80;99.90
11840;DHT22;5979;50.800;4.904;2023-10-09T15:24:10;21.70;99.90
11840;DHT22;5979;50.800;4.904;2023-10-09T15:26:48;21.70;99.90
11840;DHT22;5979;50.800;4.904;2023-10-09T15:29:24;21.60;99.90
11840;DHT22;5979;50.800;4.904;2023-10-09T15:31:59;21.50;99.90
11840;DHT22;5979;50.800;4.904;2023-10-09T15:34:30;21.50;99.90
11840;DHT22;5979;50.800;4.904;2023-10-09T15:36:56;21.50;99.90
11840;DHT22;5979;50.800;4.904;2023-10-09T15:39:22;21.50;99.90
11840;DHT22;5979;50.800;4.904;2023-10-09T15:41:49;21.50;99.90
11840;DHT22;5979;50.800;4.904;2023-10-09T15:44:16;21.50;99.90
11840;DHT22;5979;50.800;4.904;2023-10-09T15:46:42;21.40;99.90
11840;DHT22;5979;50.800;4.904;2023-10-09T15:49:13;21.40;99.90
11840;DHT22;5979;50.800;4.904;2023-10-09T15:51:42;21.30;99.90
11840;DHT22;5979;50.800;4.904;2023-10-09T15:54:09;21.20;99.90
11840;DHT22;5979;50.800;4.904;2023-10-09T15:56:37;21.10;99.90
11840;DHT22;5979;50.800;4.904;2023-10-09T15:59:07;21.00;99.90
11840;DHT22;5979;50.800;4.904;2023-10-09T16:01:33;21.00;99.90
11840;DHT22;5979;50.800;4.904;2023-10-09T16:04:01;20.90;99.90
11840;DHT22;5979;50.800;4.904;2023-10-09T16:06:26;20.80;99.90
11840;DHT22;5979;50.800;4.904;2023-10-09T16:08:56;20.80;99.90
11840;DHT22;5979;50.800;4.904;2023-10-09T16:11:22;20.70;99.90
11840;DHT22;5979;50.800;4.904;2023-10-09T16:13:50;20.60;99.90
11840;DHT22;5979;50.800;4.904;2023-10-09T16:16:24;20.60;99.90
11840;DHT22;5979;50.800;4.904;2023-10-09T16:18:50;20.50;99.90
11840;DHT22;5979;50.800;4.904;2023-10-09T16:21:17;20.50;99.90
11840;DHT22;5979;50.800;4.904;2023-10-09T16:23:42;20.40;99.90
11840;DHT22;5979;50.800;4.904;2023-10-09T16:26:08;20.30;99.90
11840;DHT22;5979;50.800;4.904;2023-10-09T16:28:34;20.30;99.90
11840;DHT22;5979;50.800;4.904;2023-10-09T16:31:00;20.20;99.90
11840;DHT22;5979;50.800;4.904;2023-10-09T16:33:26;20.10;99.90
11840;DHT22;5979;50.800;4.904;2023-10-09T16:35:52;20.00;99.90
11840;DHT22;5979;50.800;4.904;2023-10-09T16:38:20;20.00;99.90
11840;DHT22;5979;50.800;4.904;2023-10-09T16:40:52;19.90;99.90
11840;DHT22;5979;50.800;4.904;2023-10-09T16:43:20;19.80;99.90